Time;durP1;ratioP1;P1;durP2;ratioP2;P2;SDS_P1;SDS_P2;PMS_P1;PMS_P2;Temp;Humidity;BMP_temperature;BMP_pressure;BME280_temperature;BME280_humidity;BME280_pressure;Samples;Min_cycle;Max_cycle;Signal;HPM_P1;HPM_P2
2022/09/17 00:00:37;;;;;;;1.00;1.00;;;12.00;99.90;;;;;;4961156;28;20962;-63
2022/09/17 00:03:04;;;;;;;0.93;0.90;;;12.00;99.90;;;;;;4960887;28;20855;-64
2022/09/17 00:05:32;;;;;;;1.13;1.10;;;11.90;99.90;;;;;;4960891;28;20456;-64
2022/09/17 00:08:00;;;;;;;1.67;1.20;;;11.90;99.90;;;;;;4960533;28;20551;-63
2022/09/17 00:10:26;;;;;;;1.10;1.00;;;11.90;99.90;;;;;;4957668;28;20805;-63
2022/09/17 00:12:53;;;;;;;1.80;1.03;;;11.90;99.90;;;;;;4957564;28;20503;-63
2022/09/17 00:15:19;;;;;;;1.30;1.20;;;11.90;99.90;;;;;;4957650;28;20798;-63
2022/09/17 00:17:46;;;;;;;0.83;0.83;;;11.90;99.90;;;;;;4957492;28;20461;-63
2022/09/17 00:20:13;;;;;;;1.33;1.23;;;11.90;99.90;;;;;;4956911;28;20865;-63
2022/09/17 00:22:40;;;;;;;1.63;1.40;;;11.90;99.90;;;;;;4957119;28;20475;-64
2022/09/17 00:25:08;;;;;;;1.07;0.93;;;11.90;99.90;;;;;;4957380;28;20459;-63
2022/09/17 00:27:35;;;;;;;0.90;0.90;;;11.90;99.90;;;;;;4956935;28;20476;-63
2022/09/17 00:30:02;;;;;;;1.00;1.00;;;11.90;99.90;;;;;;4956857;28;20514;-64
2022/09/17 00:32:29;;;;;;;1.27;1.23;;;11.90;99.90;;;;;;4956874;28;20507;-63
2022/09/17 00:34:56;;;;;;;1.63;1.03;;;11.90;99.90;;;;;;4957104;28;20456;-63
2022/09/17 00:37:23;;;;;;;1.53;1.43;;;11.90;99.90;;;;;;4956807;28;20510;-62
2022/09/17 00:39:50;;;;;;;2.40;1.43;;;11.90;99.90;;;;;;4956948;28;20463;-63
2022/09/17 00:42:19;;;;;;;1.40;1.30;;;12.00;99.90;;;;;;4956605;28;20490;-63
2022/09/17 00:44:50;;;;;;;2.10;1.53;;;12.00;99.90;;;;;;4956569;28;20514;-63
2022/09/17 00:47:22;;;;;;;1.50;1.40;;;12.10;99.90;;;;;;4956760;28;20563;-62
2022/09/17 00:49:51;;;;;;;1.43;1.40;;;12.10;99.90;;;;;;4956723;28;20439;-64
2022/09/17 00:52:21;;;;;;;2.67;1.60;;;12.10;99.90;;;;;;4956492;28;20452;-64
2022/09/17 00:54:54;;;;;;;2.07;1.87;;;12.10;99.90;;;;;;4956522;28;20503;-63
2022/09/17 00:57:22;;;;;;;3.23;1.90;;;12.00;99.90;;;;;;4956058;28;20498;-63
2022/09/17 00:59:49;;;;;;;3.10;2.10;;;12.00;99.90;;;;;;4956249;28;20467;-63
2022/09/17 01:02:15;;;;;;;1.90;1.80;;;12.00;99.90;;;;;;4956061;28;20817;-63
2022/09/17 01:04:42;;;;;;;3.77;2.00;;;11.90;99.90;;;;;;4956392;28;20545;-64
2022/09/17 01:07:18;;;;;;;6.10;2.40;;;11.90;99.90;;;;;;4956174;28;20489;-63
2022/09/17 01:09:53;;;;;;;1.60;1.50;;;11.80;99.90;;;;;;4956200;28;20439;-63
2022/09/17 01:12:50;;;;;;;2.87;1.83;;;11.80;99.90;;;;;;4956201;28;20447;-63
2022/09/17 01:15:26;;;;;;;5.47;2.47;;;11.70;99.90;;;;;;4956610;28;20444;-63
2022/09/17 01:18:07;;;;;;;2.57;2.37;;;11.70;99.90;;;;;;4956307;28;20486;-63
2022/09/17 01:21:12;;;;;;;6.17;2.07;;;11.60;99.90;;;;;;4955965;28;20911;-62
2022/09/17 01:24:05;;;;;;;3.63;2.00;;;11.50;99.90;;;;;;4955939;28;21045;-63
2022/09/17 01:27:10;;;;;;;1.57;1.40;;;11.50;99.90;;;;;;4930368;28;20452;-64
2022/09/17 01:29:55;;;;;;;1.80;1.70;;;11.50;99.90;;;;;;4955854;28;20907;-63
2022/09/17 01:32:27;;;;;;;1.40;1.30;;;11.40;99.90;;;;;;4956192;28;20443;-64
2022/09/17 01:35:01;;;;;;;2.47;1.47;;;11.40;99.90;;;;;;4956293;28;20451;-63
2022/09/17 01:37:34;;;;;;;4.60;1.50;;;11.40;99.90;;;;;;4956398;28;20491;-63
2022/09/17 01:40:08;;;;;;;2.17;1.90;;;11.40;99.90;;;;;;4956463;28;20440;-63
2022/09/17 01:42:43;;;;;;;1.60;1.50;;;11.40;99.90;;;;;;4956365;28;20530;-63
2022/09/17 01:45:15;;;;;;;2.10;1.80;;;11.40;99.90;;;;;;4956338;28;20872;-63
2022/09/17 01:47:48;;;;;;;2.80;1.83;;;11.40;99.90;;;;;;4956779;28;20510;-63
2022/09/17 01:50:19;;;;;;;1.90;1.80;;;11.40;99.90;;;;;;4956723;28;20471;-64
2022/09/17 01:52:49;;;;;;;4.43;1.83;;;11.40;99.90;;;;;;4956437;28;20480;-63
2022/09/17 01:55:18;;;;;;;3.47;1.93;;;11.50;99.90;;;;;;4957167;28;20455;-63
2022/09/17 01:57:49;;;;;;;1.63;1.53;;;11.50;99.90;;;;;;4960189;28;20452;-62
2022/09/17 02:00:17;;;;;;;1.97;1.87;;;11.50;99.90;;;;;;4959993;28;20448;-63
2022/09/17 02:02:50;;;;;;;1.87;1.60;;;11.50;99.90;;;;;;4959914;28;20487;-63
2022/09/17 02:05:21;;;;;;;1.30;1.30;;;11.50;99.90;;;;;;4959918;28;20482;-64
2022/09/17 02:07:52;;;;;;;4.33;1.57;;;11.50;99.90;;;;;;4959495;28;20468;-63
2022/09/17 02:10:22;;;;;;;1.83;1.73;;;11.50;99.90;;;;;;4959438;28;20911;-63
2022/09/17 02:12:53;;;;;;;3.43;1.70;;;11.50;99.90;;;;;;4959564;28;20479;-63
2022/09/17 02:15:26;;;;;;;1.80;1.70;;;11.50;99.90;;;;;;4959737;28;20502;-63
2022/09/17 02:17:59;;;;;;;3.00;1.83;;;11.40;99.90;;;;;;4959587;28;20439;-64
2022/09/17 02:20:33;;;;;;;1.87;1.77;;;11.40;99.90;;;;;;4960185;28;20444;-63
2022/09/17 02:23:06;;;;;;;3.10;1.80;;;11.30;99.90;;;;;;4959482;28;20475;-63
2022/09/17 02:25:39;;;;;;;3.70;1.73;;;11.30;99.90;;;;;;4959349;28;20439;-64
2022/09/17 02:28:11;;;;;;;1.97;1.67;;;11.30;99.90;;;;;;4959357;28;20515;-64
2022/09/17 02:30:38;;;;;;;5.47;1.80;;;11.30;99.90;;;;;;4959242;28;20447;-64
2022/09/17 02:33:11;;;;;;;3.80;1.87;;;11.30;99.90;;;;;;4959002;28;20475;-63
2022/09/17 02:35:38;;;;;;;2.23;1.60;;;11.30;99.90;;;;;;4958932;28;20974;-63
2022/09/17 02:38:05;;;;;;;1.80;1.70;;;11.20;99.90;;;;;;4959024;28;20527;-64
2022/09/17 02:40:38;;;;;;;1.80;1.50;;;11.20;99.90;;;;;;4958963;28;20588;-63
2022/09/17 02:43:13;;;;;;;2.23;1.60;;;11.20;99.90;;;;;;4959003;28;20475;-63
2022/09/17 02:45:51;;;;;;;3.07;1.50;;;11.20;99.90;;;;;;4958948;28;20526;-63
2022/09/17 02:48:37;;;;;;;3.70;1.90;;;11.20;99.90;;;;;;4958661;28;20463;-63
2022/09/17 02:51:32;;;;;;;3.47;1.80;;;11.20;99.90;;;;;;4959338;28;20440;-63
2022/09/17 02:54:08;;;;;;;3.63;1.97;;;11.20;99.90;;;;;;4958715;28;20475;-64
2022/09/17 02:56:44;;;;;;;3.60;1.90;;;11.20;99.90;;;;;;4958803;28;20444;-64
2022/09/17 02:59:18;;;;;;;3.33;1.80;;;11.20;99.90;;;;;;4958382;28;20440;-63
2022/09/17 03:01:49;;;;;;;1.97;1.73;;;11.20;99.90;;;;;;4958392;28;20939;-64
2022/09/17 03:04:19;;;;;;;4.37;1.87;;;11.20;99.90;;;;;;4958298;28;20530;-63
2022/09/17 03:06:47;;;;;;;4.13;1.93;;;11.20;99.90;;;;;;4957228;28;20440;-64
2022/09/17 03:09:14;;;;;;;2.73;1.90;;;11.30;99.90;;;;;;4958536;28;20550;-63
2022/09/17 03:11:41;;;;;;;7.40;2.70;;;11.30;99.90;;;;;;4958445;28;20467;-63
2022/09/17 03:14:07;;;;;;;2.67;1.80;;;11.30;99.90;;;;;;4958136;28;20828;-63
2022/09/17 03:16:34;;;;;;;2.00;1.90;;;11.30;99.90;;;;;;4958154;28;20514;-64
2022/09/17 03:19:01;;;;;;;6.30;2.80;;;11.30;99.90;;;;;;4958175;28;20491;-63
2022/09/17 03:21:30;;;;;;;4.67;2.17;;;11.20;99.90;;;;;;4958378;28;20460;-63
2022/09/17 03:23:59;;;;;;;3.53;2.10;;;11.30;99.90;;;;;;4958241;28;20475;-63
2022/09/17 03:26:25;;;;;;;7.00;2.47;;;11.20;99.90;;;;;;4958183;28;20451;-63
2022/09/17 03:28:52;;;;;;;2.70;2.50;;;11.20;99.90;;;;;;4958135;28;20479;-63
2022/09/17 03:31:19;;;;;;;4.83;2.63;;;11.20;99.90;;;;;;4958174;28;20456;-65
2022/09/17 03:33:46;;;;;;;3.03;2.40;;;11.20;99.90;;;;;;4958378;28;20479;-63
2022/09/17 03:36:12;;;;;;;2.43;2.33;;;11.10;99.90;;;;;;4958148;28;20807;-63
2022/09/17 03:38:40;;;;;;;2.57;1.87;;;11.10;99.90;;;;;;4959216;28;20455;-63
2022/09/17 03:41:07;;;;;;;3.60;2.47;;;11.10;99.90;;;;;;4959020;28;20460;-63
2022/09/17 03:43:34;;;;;;;3.87;2.80;;;11.00;99.90;;;;;;4958689;28;20479;-62
2022/09/17 03:46:01;;;;;;;3.40;2.27;;;11.00;99.90;;;;;;4957983;28;20460;-63
2022/09/17 03:48:29;;;;;;;3.73;3.33;;;11.00;99.90;;;;;;4957843;28;20475;-63
2022/09/17 03:50:56;;;;;;;5.10;2.40;;;10.90;99.90;;;;;;4957447;28;20868;-63
2022/09/17 03:53:23;;;;;;;4.73;2.10;;;10.90;99.90;;;;;;4957803;28;20480;-63
2022/09/17 03:55:51;;;;;;;4.30;2.40;;;10.90;99.90;;;;;;4957820;28;20451;-63
2022/09/17 03:58:17;;;;;;;4.77;2.23;;;10.80;99.90;;;;;;4957557;28;20514;-63
2022/09/17 04:00:44;;;;;;;2.10;1.90;;;10.80;99.90;;;;;;4957457;28;20460;-63
2022/09/17 04:03:11;;;;;;;5.00;2.10;;;10.80;99.90;;;;;;4957313;28;20538;-64
2022/09/17 04:05:39;;;;;;;4.90;2.40;;;10.80;99.90;;;;;;4959502;28;20462;-63
2022/09/17 04:08:05;;;;;;;4.40;2.23;;;10.80;99.90;;;;;;4961134;28;20486;-62
2022/09/17 04:10:32;;;;;;;6.93;3.23;;;10.80;99.90;;;;;;4957458;28;20455;-63
2022/09/17 04:13:00;;;;;;;6.23;2.70;;;10.70;99.90;;;;;;4957444;28;20534;-64
2022/09/17 04:15:27;;;;;;;4.70;2.50;;;10.70;99.90;;;;;;4959742;28;20510;-63
2022/09/17 04:17:56;;;;;;;6.00;2.77;;;10.80;99.90;;;;;;4956749;28;20986;-63
2022/09/17 04:20:23;;;;;;;7.50;3.00;;;10.80;99.90;;;;;;4957436;28;20876;-63
2022/09/17 04:22:50;;;;;;;4.60;2.90;;;10.80;99.90;;;;;;4956997;28;21052;-64
2022/09/17 04:25:17;;;;;;;4.10;2.20;;;10.90;99.90;;;;;;4957209;28;20451;-63
2022/09/17 04:27:43;;;;;;;6.73;3.07;;;10.90;99.90;;;;;;4957006;28;20953;-63
2022/09/17 04:30:12;;;;;;;3.43;2.10;;;11.00;99.90;;;;;;4957181;28;20510;-63
2022/09/17 04:32:39;;;;;;;5.03;2.43;;;11.00;99.90;;;;;;4957072;28;20903;-63
2022/09/17 04:35:06;;;;;;;9.50;2.20;;;11.00;99.90;;;;;;4957247;28;20456;-63
2022/09/17 04:37:33;;;;;;;2.00;1.80;;;11.00;99.90;;;;;;4957083;28;20478;-63
2022/09/17 04:39:59;;;;;;;2.93;1.97;;;11.00;99.90;;;;;;4956551;28;20965;-63
2022/09/17 04:42:26;;;;;;;8.93;2.60;;;11.10;99.90;;;;;;4956692;28;20896;-63
2022/09/17 04:44:52;;;;;;;2.87;2.67;;;11.10;99.90;;;;;;4956990;28;20497;-63
2022/09/17 04:47:21;;;;;;;4.77;2.20;;;11.10;99.90;;;;;;4956875;28;20515;-63
2022/09/17 04:49:47;;;;;;;3.93;2.30;;;11.10;99.90;;;;;;4956771;28;20487;-63
2022/09/17 04:52:14;;;;;;;3.40;2.43;;;11.10;99.90;;;;;;4956753;28;20536;-63
2022/09/17 04:54:41;;;;;;;3.23;2.20;;;11.10;99.90;;;;;;4956407;28;20943;-63
2022/09/17 04:57:07;;;;;;;5.00;2.50;;;11.10;99.90;;;;;;4956776;28;20463;-62
2022/09/17 04:59:34;;;;;;;7.50;2.43;;;11.10;99.90;;;;;;4956957;28;20456;-62
2022/09/17 05:02:01;;;;;;;4.90;3.60;;;11.20;99.90;;;;;;4956802;28;20534;-62
2022/09/17 05:04:29;;;;;;;3.07;2.27;;;11.20;99.90;;;;;;4956232;28;20515;-63
2022/09/17 05:06:55;;;;;;;4.43;2.30;;;11.20;99.90;;;;;;4956674;28;20534;-63
2022/09/17 05:09:22;;;;;;;3.43;1.90;;;11.20;99.90;;;;;;4956237;28;20995;-63
2022/09/17 05:11:48;;;;;;;4.70;2.53;;;11.20;99.90;;;;;;4956561;28;20455;-63
2022/09/17 05:14:15;;;;;;;3.10;2.40;;;11.20;99.90;;;;;;4956437;28;20535;-63
2022/09/17 05:16:42;;;;;;;3.00;2.40;;;11.10;99.90;;;;;;4956508;28;20459;-63
2022/09/17 05:19:08;;;;;;;4.97;2.90;;;11.00;99.90;;;;;;4956736;28;20491;-64
2022/09/17 05:21:37;;;;;;;6.23;3.20;;;10.90;99.90;;;;;;4956936;28;20514;-64
2022/09/17 05:24:04;;;;;;;5.60;3.17;;;10.90;99.90;;;;;;4956973;28;20498;-64
2022/09/17 05:26:30;;;;;;;4.27;2.70;;;10.90;99.90;;;;;;4956894;28;20464;-63
2022/09/17 05:28:57;;;;;;;3.80;2.40;;;10.80;99.90;;;;;;4956450;28;20475;-63
2022/09/17 05:31:24;;;;;;;4.27;2.17;;;10.80;99.90;;;;;;4955942;28;20455;-63
2022/09/17 05:33:51;;;;;;;6.40;2.50;;;10.80;99.90;;;;;;4956405;28;20531;-63
2022/09/17 05:36:17;;;;;;;2.97;2.40;;;10.80;99.90;;;;;;4956518;28;20455;-63
2022/09/17 05:38:46;;;;;;;5.70;2.70;;;10.80;99.90;;;;;;4955907;28;20868;-63
2022/09/17 05:41:12;;;;;;;7.60;3.70;;;10.90;99.90;;;;;;4955870;28;20947;-63
2022/09/17 05:43:39;;;;;;;4.40;2.80;;;10.90;99.90;;;;;;4956094;28;20480;-62
2022/09/17 05:46:06;;;;;;;10.40;2.50;;;10.90;99.90;;;;;;4956063;28;20511;-62
2022/09/17 05:48:33;;;;;;;5.10;2.63;;;11.00;99.90;;;;;;4956133;28;20838;-63
2022/09/17 05:51:00;;;;;;;2.57;2.10;;;11.10;99.90;;;;;;4956027;28;20456;-63
2022/09/17 05:53:26;;;;;;;3.80;2.70;;;11.10;99.90;;;;;;4955789;28;20534;-63
2022/09/17 05:55:57;;;;;;;3.53;2.10;;;11.20;99.90;;;;;;4955768;28;20510;-63
2022/09/17 05:58:24;;;;;;;3.80;2.63;;;11.20;99.90;;;;;;4956123;28;20440;-63
2022/09/17 06:00:52;;;;;;;4.70;2.90;;;11.40;99.90;;;;;;4955898;28;20466;-63
2022/09/17 06:03:21;;;;;;;4.00;2.40;;;11.50;99.90;;;;;;4955971;28;20498;-63
2022/09/17 06:05:54;;;;;;;3.17;2.70;;;11.60;99.90;;;;;;4956004;28;20459;-63
2022/09/17 06:08:20;;;;;;;3.30;2.23;;;11.70;99.90;;;;;;4956637;28;20443;-64
2022/09/17 06:10:47;;;;;;;2.70;2.23;;;11.70;99.90;;;;;;4958745;28;20456;-63
2022/09/17 06:13:15;;;;;;;3.97;2.57;;;11.60;99.90;;;;;;4957938;28;20594;-64
2022/09/17 06:15:42;;;;;;;3.77;2.50;;;11.70;99.90;;;;;;4959424;28;20459;-63
2022/09/17 06:18:09;;;;;;;4.87;3.00;;;11.80;99.90;;;;;;4957760;28;20455;-63
2022/09/17 06:20:36;;;;;;;7.07;2.77;;;11.80;99.90;;;;;;4955693;28;20460;-62
2022/09/17 06:23:02;;;;;;;7.23;2.57;;;11.80;99.90;;;;;;4955700;28;20546;-67
2022/09/17 06:25:30;;;;;;;6.43;2.80;;;11.90;99.90;;;;;;4955585;28;20947;-66
2022/09/17 06:27:57;;;;;;;4.27;2.40;;;12.10;99.90;;;;;;4955786;28;20566;-64
2022/09/17 06:30:25;;;;;;;9.27;2.73;;;12.20;99.90;;;;;;4955673;28;20489;-64
2022/09/17 06:32:52;;;;;;;5.00;2.60;;;12.20;99.90;;;;;;4955767;28;20483;-64
2022/09/17 06:35:18;;;;;;;7.13;2.57;;;12.30;99.90;;;;;;4955599;28;20681;-64
2022/09/17 06:37:45;;;;;;;4.30;2.50;;;12.20;99.90;;;;;;4955609;28;20455;-65
2022/09/17 06:40:12;;;;;;;4.67;2.30;;;12.20;99.90;;;;;;4955495;28;20455;-64
2022/09/17 06:42:39;;;;;;;4.93;2.40;;;12.20;99.90;;;;;;4958440;28;20486;-64
2022/09/17 06:45:07;;;;;;;2.73;2.07;;;12.20;99.90;;;;;;4959353;28;20463;-64
2022/09/17 06:47:35;;;;;;;4.00;2.03;;;12.20;99.90;;;;;;4959059;28;20493;-65
2022/09/17 06:50:01;;;;;;;3.03;2.57;;;12.10;99.90;;;;;;4958857;28;20483;-63
2022/09/17 06:52:28;;;;;;;4.17;2.27;;;12.10;99.90;;;;;;4958781;28;20486;-64
2022/09/17 06:54:55;;;;;;;5.20;2.90;;;12.00;99.90;;;;;;4958881;28;20510;-64
2022/09/17 06:57:21;;;;;;;6.47;3.00;;;12.00;99.90;;;;;;4958864;28;20455;-64
2022/09/17 06:59:49;;;;;;;6.87;2.73;;;12.00;99.90;;;;;;4959275;28;20455;-66
2022/09/17 07:02:16;;;;;;;6.07;3.13;;;12.00;99.90;;;;;;4958337;28;20455;-63
2022/09/17 07:04:44;;;;;;;4.53;2.40;;;11.90;99.90;;;;;;4958994;28;20444;-63
2022/09/17 07:07:11;;;;;;;7.47;2.63;;;11.90;99.90;;;;;;4958736;28;20508;-63
2022/09/17 07:09:37;;;;;;;3.17;2.53;;;11.90;99.90;;;;;;4958447;28;20505;-65
2022/09/17 07:12:08;;;;;;;4.17;2.90;;;12.00;99.90;;;;;;4958467;28;20490;-64
2022/09/17 07:14:34;;;;;;;4.97;2.50;;;12.00;99.90;;;;;;4958297;28;20440;-64
2022/09/17 07:17:01;;;;;;;4.60;3.33;;;12.00;99.90;;;;;;4958584;28;20508;-65
2022/09/17 07:19:27;;;;;;;5.17;3.20;;;12.00;99.90;;;;;;4958452;28;20457;-64
2022/09/17 07:21:55;;;;;;;5.67;3.43;;;11.90;99.90;;;;;;4958559;28;20519;-64
2022/09/17 07:24:22;;;;;;;3.70;3.13;;;11.90;99.90;;;;;;4958349;28;20476;-65
2022/09/17 07:26:50;;;;;;;6.50;3.03;;;11.90;99.90;;;;;;4958335;28;20455;-66
2022/09/17 07:29:17;;;;;;;3.30;3.00;;;12.00;99.90;;;;;;4957919;28;20890;-64
2022/09/17 07:31:44;;;;;;;3.03;2.83;;;12.10;99.90;;;;;;4958158;28;20460;-64
2022/09/17 07:34:11;;;;;;;4.63;3.00;;;12.20;99.90;;;;;;4958199;28;20483;-64
2022/09/17 07:36:37;;;;;;;6.00;2.90;;;12.10;99.90;;;;;;4958402;28;20597;-63
2022/09/17 07:39:06;;;;;;;3.40;2.87;;;12.10;99.90;;;;;;4958416;28;20452;-63
2022/09/17 07:41:33;;;;;;;5.37;3.40;;;12.00;99.90;;;;;;4958150;28;20460;-64
2022/09/17 07:44:01;;;;;;;4.13;3.17;;;11.90;99.90;;;;;;4958241;28;20479;-62
2022/09/17 07:46:28;;;;;;;6.93;3.00;;;11.90;99.90;;;;;;4958278;28;20491;-63
2022/09/17 07:48:55;;;;;;;4.57;3.07;;;11.80;99.90;;;;;;4958227;28;20519;-64
2022/09/17 07:51:23;;;;;;;2.87;2.63;;;11.80;99.90;;;;;;4957967;28;20506;-64
2022/09/17 07:53:51;;;;;;;3.73;3.00;;;11.80;99.90;;;;;;4957723;28;20486;-63
2022/09/17 07:56:20;;;;;;;3.77;3.03;;;11.80;99.90;;;;;;4959096;28;20514;-63
2022/09/17 07:58:47;;;;;;;6.30;3.60;;;11.80;99.90;;;;;;4958522;28;20451;-63
2022/09/17 08:01:16;;;;;;;3.57;3.30;;;11.80;99.90;;;;;;4957935;28;20872;-64
2022/09/17 08:03:43;;;;;;;8.57;3.40;;;11.90;99.90;;;;;;4957614;28;20491;-63
2022/09/17 08:06:12;;;;;;;3.70;3.17;;;12.00;99.90;;;;;;4958533;28;20466;-63
2022/09/17 08:08:40;;;;;;;3.33;3.03;;;12.10;99.90;;;;;;4957829;28;20455;-64
2022/09/17 08:11:08;;;;;;;2.77;2.57;;;12.10;99.90;;;;;;4957478;28;20511;-64
2022/09/17 08:13:37;;;;;;;3.97;3.10;;;12.10;99.90;;;;;;4957011;28;20483;-64
2022/09/17 08:16:06;;;;;;;4.40;3.30;;;12.10;99.90;;;;;;4957459;28;20456;-65
2022/09/17 08:18:34;;;;;;;3.40;2.90;;;12.20;99.90;;;;;;4957132;28;20514;-64
2022/09/17 08:21:03;;;;;;;4.80;3.00;;;12.30;99.90;;;;;;4957203;28;20448;-65
2022/09/17 08:23:30;;;;;;;5.97;4.07;;;12.40;99.90;;;;;;4957151;28;20479;-65
2022/09/17 08:25:59;;;;;;;5.17;3.60;;;12.50;99.90;;;;;;4957867;28;20459;-65
2022/09/17 08:28:28;;;;;;;4.50;3.70;;;12.60;99.90;;;;;;4957696;28;20958;-66
2022/09/17 08:31:00;;;;;;;4.00;3.53;;;12.70;99.90;;;;;;4957801;28;20471;-66
2022/09/17 08:33:30;;;;;;;4.83;3.93;;;12.90;99.90;;;;;;4957529;28;20482;-66
2022/09/17 08:35:58;;;;;;;5.40;3.40;;;13.10;99.90;;;;;;4957790;28;20459;-65
2022/09/17 08:38:25;;;;;;;4.20;3.40;;;13.20;99.90;;;;;;4956764;28;20467;-63
2022/09/17 08:41:00;;;;;;;4.53;3.47;;;13.20;99.90;;;;;;4956573;28;20999;-64
2022/09/17 08:43:30;;;;;;;4.33;2.90;;;13.40;99.90;;;;;;4956789;28;20887;-64
2022/09/17 08:45:59;;;;;;;6.00;3.17;;;13.80;99.90;;;;;;4956946;28;20478;-63
2022/09/17 08:48:35;;;;;;;10.00;3.80;;;14.30;99.90;;;;;;4956815;28;20455;-65
2022/09/17 08:51:07;;;;;;;4.10;2.70;;;14.90;99.90;;;;;;4956496;28;20974;-64
2022/09/17 08:53:52;;;;;;;6.90;3.03;;;15.60;99.90;;;;;;4956689;28;20483;-63
2022/09/17 08:56:20;;;;;;;3.43;2.50;;;16.50;99.90;;;;;;4956943;28;20443;-64
2022/09/17 08:59:04;;;;;;;5.33;2.80;;;16.80;99.90;;;;;;4956192;28;20986;-64
2022/09/17 09:01:42;;;;;;;3.77;2.27;;;16.80;99.90;;;;;;4956577;28;20523;-64
2022/09/17 09:04:40;;;;;;;8.67;3.40;;;16.60;99.90;;;;;;4956374;28;20998;-64
2022/09/17 09:07:13;;;;;;;3.83;2.33;;;16.40;99.90;;;;;;4956281;28;20440;-64
2022/09/17 09:09:47;;;;;;;6.67;2.93;;;16.00;99.90;;;;;;4957077;28;20468;-64
2022/09/17 09:12:32;;;;;;;5.37;2.27;;;15.70;99.90;;;;;;4956615;28;20497;-64
2022/09/17 09:15:01;;;;;;;6.00;2.30;;;15.40;99.90;;;;;;4956574;28;20538;-64
2022/09/17 09:17:36;;;;;;;7.20;2.67;;;15.20;99.90;;;;;;4956232;28;20451;-64
2022/09/17 09:20:05;;;;;;;6.27;3.20;;;14.90;99.90;;;;;;4956178;28;20969;-64
2022/09/17 09:22:46;;;;;;;5.67;2.43;;;14.60;99.90;;;;;;4956169;28;20482;-64
2022/09/17 09:25:22;;;;;;;5.20;2.37;;;14.30;99.90;;;;;;4956193;28;20446;-64
2022/09/17 09:28:02;;;;;;;12.20;3.50;;;14.20;99.90;;;;;;4956287;28;20471;-64
2022/09/17 09:30:39;;;;;;;9.57;2.80;;;14.20;99.90;;;;;;4956639;28;20527;-64
2022/09/17 09:33:13;;;;;;;4.17;2.50;;;14.20;99.90;;;;;;4957017;28;20475;-64
2022/09/17 09:35:42;;;;;;;6.80;2.37;;;14.20;99.90;;;;;;4955930;28;20967;-64
2022/09/17 09:38:18;;;;;;;5.30;2.97;;;14.10;99.90;;;;;;4956130;28;20527;-64
2022/09/17 09:40:51;;;;;;;6.83;2.97;;;14.20;99.90;;;;;;4956176;28;20436;-64
2022/09/17 09:43:21;;;;;;;3.83;2.60;;;14.30;99.90;;;;;;4956159;28;20476;-64
2022/09/17 09:46:09;;;;;;;6.40;2.90;;;14.20;99.90;;;;;;4955803;28;20460;-65
2022/09/17 09:48:46;;;;;;;10.57;3.03;;;14.30;99.90;;;;;;4955966;28;20795;-64
2022/09/17 09:51:25;;;;;;;4.73;2.27;;;14.30;99.90;;;;;;4955916;28;20554;-64
2022/09/17 09:54:03;;;;;;;4.67;2.70;;;14.50;99.90;;;;;;4956009;28;20479;-64
2022/09/17 09:56:42;;;;;;;7.27;2.20;;;14.80;99.90;;;;;;4955851;28;20448;-65
2022/09/17 09:59:11;;;;;;;4.57;2.13;;;15.20;99.90;;;;;;4955950;28;20911;-64
2022/09/17 10:01:42;;;;;;;7.23;2.23;;;15.60;99.90;;;;;;4956205;28;20511;-65
2022/09/17 10:04:18;;;;;;;3.70;2.07;;;15.90;99.90;;;;;;4955796;28;20498;-64
2022/09/17 10:06:46;;;;;;;8.80;2.20;;;15.90;99.90;;;;;;4956596;28;20449;-64
2022/09/17 10:09:15;;;;;;;6.00;2.07;;;15.90;99.90;;;;;;4956061;28;20463;-64
2022/09/17 10:11:43;;;;;;;7.70;2.50;;;15.70;99.90;;;;;;4955697;28;20566;-65
2022/09/17 10:14:24;;;;;;;9.30;2.60;;;15.60;99.90;;;;;;4956094;28;20479;-64
2022/09/17 10:17:09;;;;;;;3.63;2.37;;;15.40;99.90;;;;;;4957703;28;20443;-64
2022/09/17 10:19:37;;;;;;;3.13;2.27;;;15.00;99.90;;;;;;4960278;28;20478;-65
2022/09/17 10:22:30;;;;;;;7.30;3.40;;;14.90;99.90;;;;;;4959865;28;20490;-65
2022/09/17 10:24:59;;;;;;;7.27;2.60;;;14.90;99.90;;;;;;4959688;28;20844;-64
2022/09/17 10:27:26;;;;;;;3.97;2.40;;;15.00;99.90;;;;;;4959540;28;20978;-65
2022/09/17 10:30:02;;;;;;;7.30;2.60;;;15.10;99.90;;;;;;4959668;28;20488;-64
2022/09/17 10:32:28;;;;;;;2.67;2.00;;;15.30;99.90;;;;;;4959474;28;20475;-64
2022/09/17 10:35:03;;;;;;;3.90;1.70;;;15.80;99.90;;;;;;4959576;28;20483;-64
2022/09/17 10:37:35;;;;;;;3.03;2.00;;;16.60;99.90;;;;;;4959821;28;20443;-64
2022/09/17 10:40:22;;;;;;;4.63;2.03;;;17.40;99.90;;;;;;4959334;28;20514;-64
2022/09/17 10:42:50;;;;;;;2.63;1.33;;;18.50;99.90;;;;;;4959165;28;20577;-65
2022/09/17 10:45:24;;;;;;;2.37;1.47;;;19.90;99.90;;;;;;4959649;28;20459;-65
2022/09/17 10:47:52;;;;;;;4.17;1.40;;;21.10;99.90;;;;;;4959614;28;20538;-65
2022/09/17 10:50:24;;;;;;;2.90;1.70;;;21.50;98.50;;;;;;4959654;28;20479;-65
2022/09/17 10:52:54;;;;;;;3.40;1.53;;;21.90;96.50;;;;;;4959583;28;20471;-65
2022/09/17 10:55:31;;;;;;;2.60;1.40;;;21.80;95.40;;;;;;4959312;28;20462;-65
2022/09/17 10:58:08;;;;;;;3.53;1.60;;;21.60;95.70;;;;;;4959573;28;20513;-65
2022/09/17 11:00:44;;;;;;;4.20;1.70;;;21.50;95.30;;;;;;4959239;28;20494;-64
2022/09/17 11:03:52;;;;;;;2.17;1.30;;;21.10;94.10;;;;;;4958809;28;20499;-65
2022/09/17 11:06:36;;;;;;;2.70;1.97;;;21.00;96.40;;;;;;4959272;28;20502;-66
2022/09/17 11:09:14;;;;;;;3.33;1.90;;;21.10;97.80;;;;;;4959243;28;20443;-65
2022/09/17 11:11:51;;;;;;;1.97;1.47;;;21.00;94.60;;;;;;4959056;28;20467;-64
2022/09/17 11:14:36;;;;;;;3.60;1.50;;;20.80;96.30;;;;;;4959100;28;20475;-65
2022/09/17 11:17:11;;;;;;;4.33;2.00;;;20.60;95.30;;;;;;4959184;28;20440;-65
2022/09/17 11:19:46;;;;;;;3.57;1.70;;;20.50;95.80;;;;;;4959231;28;20439;-64
2022/09/17 11:22:22;;;;;;;5.60;1.47;;;20.70;95.20;;;;;;4959129;28;20499;-65
2022/09/17 11:25:15;;;;;;;5.00;1.63;;;20.70;94.80;;;;;;4959252;28;20440;-66
2022/09/17 11:27:56;;;;;;;3.23;1.40;;;20.60;95.20;;;;;;4957477;28;20439;-66
2022/09/17 11:30:25;;;;;;;5.30;2.07;;;20.20;95.80;;;;;;4958937;28;20522;-66
2022/09/17 11:33:15;;;;;;;4.40;1.33;;;19.90;95.90;;;;;;4958741;28;20475;-66
2022/09/17 11:35:47;;;;;;;2.10;1.53;;;19.60;96.00;;;;;;4958640;28;20448;-66
2022/09/17 11:38:19;;;;;;;3.57;1.80;;;19.30;96.70;;;;;;4958501;28;20499;-65
2022/09/17 11:40:50;;;;;;;2.77;1.70;;;18.80;98.10;;;;;;4958767;28;20491;-65
2022/09/17 11:43:25;;;;;;;3.63;2.13;;;18.60;99.90;;;;;;4958412;28;20531;-66
2022/09/17 11:46:03;;;;;;;1.80;1.30;;;18.50;98.90;;;;;;4958272;28;20503;-66
2022/09/17 11:48:35;;;;;;;4.57;2.20;;;18.30;99.90;;;;;;4958425;28;20824;-65
2022/09/17 11:51:08;;;;;;;2.80;1.80;;;18.10;99.90;;;;;;4958265;28;20471;-65
2022/09/17 11:53:43;;;;;;;2.07;1.47;;;17.90;99.90;;;;;;4958463;28;20510;-68
2022/09/17 11:56:17;;;;;;;4.70;1.60;;;17.80;99.90;;;;;;4958819;28;20446;-65
2022/09/17 11:58:49;;;;;;;2.53;1.40;;;17.70;99.90;;;;;;4959956;28;20895;-66
2022/09/17 12:01:21;;;;;;;3.53;2.23;;;17.60;99.90;;;;;;4960770;28;20491;-65
2022/09/17 12:03:53;;;;;;;5.50;2.27;;;17.50;99.90;;;;;;4959745;28;20607;-66
2022/09/17 12:06:28;;;;;;;4.93;1.60;;;17.20;99.90;;;;;;4959802;28;20472;-65
2022/09/17 12:09:00;;;;;;;2.73;2.37;;;17.10;99.90;;;;;;4958105;28;20795;-66
2022/09/17 12:11:34;;;;;;;6.33;2.57;;;16.90;99.90;;;;;;4957886;28;20467;-65
2022/09/17 12:14:05;;;;;;;3.17;2.20;;;16.70;99.90;;;;;;4958413;28;20471;-64
2022/09/17 12:16:36;;;;;;;1.80;1.70;;;16.80;99.90;;;;;;4957401;28;20983;-65
2022/09/17 12:19:12;;;;;;;3.30;2.00;;;17.00;99.90;;;;;;4958441;28;20444;-65
2022/09/17 12:21:43;;;;;;;2.83;1.83;;;17.00;99.90;;;;;;4957766;28;20439;-65
2022/09/17 12:24:17;;;;;;;5.10;2.10;;;17.00;99.90;;;;;;4957888;28;20862;-65
2022/09/17 12:27:03;;;;;;;3.70;1.80;;;16.90;99.90;;;;;;4957643;28;20436;-65
2022/09/17 12:29:45;;;;;;;6.83;1.97;;;16.30;99.90;;;;;;4957753;28;20476;-65
2022/09/17 12:32:31;;;;;;;2.70;1.83;;;16.00;99.90;;;;;;4957038;28;20464;-65
2022/09/17 12:35:03;;;;;;;2.90;1.73;;;16.20;99.90;;;;;;4957195;28;20526;-64
2022/09/17 12:37:41;;;;;;;4.70;2.37;;;16.60;99.90;;;;;;4956853;28;20833;-65
2022/09/17 12:40:20;;;;;;;4.73;2.17;;;16.90;99.90;;;;;;4957058;28;20440;-65
2022/09/17 12:43:01;;;;;;;2.83;1.70;;;17.30;99.90;;;;;;4957593;28;20535;-64
2022/09/17 12:45:38;;;;;;;4.50;1.70;;;17.40;99.90;;;;;;4959122;28;20443;-64
2022/09/17 12:48:22;;;;;;;1.70;1.60;;;17.40;99.90;;;;;;4958746;28;20471;-64
2022/09/17 12:51:02;;;;;;;3.43;1.40;;;17.40;99.90;;;;;;4957291;28;20863;-64
2022/09/17 12:53:33;;;;;;;2.00;1.33;;;17.70;99.90;;;;;;4956867;28;20484;-64
2022/09/17 12:56:17;;;;;;;0.93;0.80;;;17.90;99.90;;;;;;4957952;28;20436;-65
2022/09/17 12:58:57;;;;;;;0.80;0.80;;;18.10;99.90;;;;;;4957358;28;20443;-66
2022/09/17 13:01:32;;;;;;;1.67;1.40;;;18.30;99.90;;;;;;4957093;28;20435;-64
2022/09/17 13:04:11;;;;;;;1.80;1.07;;;18.40;99.90;;;;;;4956875;28;20518;-64
2022/09/17 13:07:10;;;;;;;3.30;1.37;;;18.30;99.90;;;;;;4956767;28;20907;-64